Tiempo atmosférico en la estación meteorológica de Tazacorte, Santa Cruz de Tenerife (30 m.)



Fecha
DESCASC
Temp. máxima en grados centígrados (hora)
DESCASC
Temp. mínima en grados centígrados (hora)
DESCASC
Temp. media en grados centígrados
DESCASC
Racha de viento máxima en m/sg (hora)
DESCASC
Velocidad máxima media en intervalos de 10 minutos(hora)
DESCASC
Precipitaciones diarias en mm
DESCASC
Precipitaciones de 00:00 a 06:00 en mm
DESCASC
Precipitaciones de 06:00 a 12:00 en mm
DESCASC
Precipitaciones de 12:00 a 18:00 en mm
DESCASC
Precipitaciones de 18:00 a 24:00 en mm
DESCASC
22-04-2019 25.2 (15:50) 16.7 (03:10) 21 8.33 (17:50) 4.72 (17:50) 0 0 0 0 0
21-04-2019 26 (14:40) 16.1 (08:10) 21.1 4.44 (00:40) 2.5 (00:40) 0 0 0 0 0
20-04-2019 22.7 (14:20) 17.7 (04:10) 20.2 4.72 (10:10) 2.78 (10:10) 0 0 0 0 0
19-04-2019 24.8 (16:40) 16.4 (05:10) 20.6 5 (13:20) 2.78 (13:20) 0 0 0 0 0
18-04-2019 25.1 (16:30) 16.6 (00:00) 20.9 5.28 (17:50) 3.06 (17:50) 0 0 0 0 0
17-04-2019 22.4 (16:00) 17.2 (00:00) 19.8 10.28 (14:10) 5.83 (14:20) 0 0 0 0 0
16-04-2019 22.9 (15:50) 17.3 (00:00) 20.1 5.83 (18:00) 3.33 (12:30) 0 0 0 0 0
15-04-2019 23.1 (12:10) 16.7 (00:00) 19.9 6.39 (01:20) 3.33 (07:50) 0 0 0 0 0
14-04-2019 22.9 (15:10) 15.8 (00:00) 19.3 7.5 (14:00) 4.44 (14:00) 0 0 0 0 0
13-04-2019 25.1 (14:50) 16.1 (00:00) 20.6 8.61 (11:00) 4.72 (11:30) 0 0 0 0 0
12-04-2019 23.9 (13:30) 16.1 (00:00) 20 6.11 (15:50) 3.06 (15:00) 0 0 0 0 0
11-04-2019 24.2 (13:10) 16.4 (00:00) 20.3 5.56 (16:50) 3.06 (16:50) 0 0 0 0 0
10-04-2019 24.8 (16:30) 15.9 (00:00) 20.3 4.72 (17:20) 2.5 (02:10) 0 0 0 0 0
09-04-2019 25.2 (15:30) 15.4 (00:00) 20.3 5.56 (16:40) 3.33 (16:30) 0 0 0 0 0
08-04-2019 23.4 (16:20) 16.8 (00:00) 20.1 5.83 (14:10) 3.33 (13:40) 0 0 0 0 0
07-04-2019 21.3 (12:40) 16 (00:00) 18.6 6.11 (16:10) 3.33 (16:10) 0 0 0 0 0
06-04-2019 24.9 (16:10) 15.2 (00:00) 20 5.56 (09:10) 2.78 (12:10) 0 0 0 0 0
05-04-2019 22.5 (12:50) 15.1 (00:00) 18.8 14.44 (16:50) 6.67 (16:50) 0 0 0 0 0
04-04-2019 24.2 (15:10) 14.8 (00:00) 19.5 8.89 (15:20) 4.72 (15:30) 0 0 0 0 0
03-04-2019 21.2 (15:00) 14.5 (06:10) 17.9 10.28 (13:00) 5.28 (13:00) 0 0 0 0 0
02-04-2019 22.7 (16:20) 13.6 (00:00) 18.2 5 (18:20) 2.78 (17:40) 1.9 1.8 0.1 0 0
01-04-2019 21.6 (13:20) 14.5 (00:00) 18.1 5.83 (18:10) 3.61 (18:10) 4.3 0 0 1.1 3.2
31-03-2019 21.8 (16:00) 15.3 (00:00) 18.5 8.61 (12:30) 4.72 (12:00) 0 0 0 0 0
30-03-2019 23.7 (13:40) 14.5 (00:00) 19.1 6.39 (14:20) 3.61 (14:20) 0 0 0 0 0
29-03-2019 22.3 (14:20) 14.6 (00:00) 18.4 5 (15:50) 3.06 (06:50) 0 0 0 0 0
28-03-2019 23.3 (15:50) 15.8 (00:00) 19.5 5 (14:20) 3.06 (14:10) 0 0 0 0 0
27-03-2019 24.6 (15:40) 15.9 (00:00) 20.3 5.83 (18:50) 3.06 (16:50) 0 0 0 0 0
26-03-2019 24.3 (15:20) 14.3 (00:00) 19.3 5.28 (14:50) 3.06 (15:40) 0 0 0 0 0
25-03-2019 19.5 (13:10) 14.5 (00:00) 17 6.67 (06:10) 3.61 (06:10) 4.7 2.1 0.4 2.2 0

Gráficas

Temp. máximas Temp. mínimas Temp. medias Precipitaciones Rachas de viento máximas Velocidades máximas media en intervalos de 10 minutos

Datos horarios

Fecha y hora oficial Temperatura (ºC) Velocidad del viento (km/h) Dirección del viento Racha (km/h) Dirección de racha Precipitación (mm) Presión (hPa) Tendencia (hPa) Humedad (%)
2019-04-23 23:00:00 17.7 6 Sudeste 20 Sudeste 0 1009.4 2 71
2019-04-23 22:00:00 18.3 9 Sudeste 19 Sur 0 1008.8 1.8 67
2019-04-23 21:00:00 18.9 3 Sudeste 19 Sudoeste 0 1008.1 0.4 63
2019-04-23 20:00:00 20.2 8 Sur 21 Sudeste 0 1007.4 -0.8 60
2019-04-23 19:00:00 20.5 6 Oeste 27 Noroeste 0 1007 -1.4 61
2019-04-23 18:00:00 20.9 13 Noroeste 26 Noroeste 0 1007.7 -0.7 61
2019-04-23 17:00:00 21.6 14 Noroeste 26 Noroeste 0 1008.2 0.1 60
2019-04-23 16:00:00 21.9 15 Noroeste 32 Noroeste 0 1008.4 0.3 59
2019-04-23 15:00:00 21.8 20 Noroeste 39 Noroeste 0 1008.4 0.1 56
2019-04-23 14:00:00 22.6 11 Noroeste 26 Oeste 0 1008.1 0.1 60
2019-04-23 13:00:00 24.5 11 Sur 20 Sur 0 1008.1 0.7 60
2019-04-23 12:00:00 21.1 9 Noroeste 24 Noroeste 0 1008.3 1.5 74
2019-04-23 11:00:00 20.6 4 Oeste 18 Sur 0 1008 2 72
2019-04-23 10:00:00 19.6 8 Sudeste 22 Sur 0 1007.4 1.3 72
2019-04-23 09:00:00 17.5 9 Sudeste 15 Sudeste 0 1006.8 0.9 79
2019-04-23 08:00:00 16.9 6 Sudeste 12 Sudeste 0 1006 -0.1 79
2019-04-23 07:00:00 17.2 4 Este 8 Sudeste 0 1006.1 -0.6 78
2019-04-23 06:00:00 17.8 4 Oeste 10 Oeste 0 1005.9 -1.3 78
2019-04-23 05:00:00 17.8 2 Este 9 Sudeste 0 1006.1 -1.7 78
2019-04-23 04:00:00 17.6 4 Este 7 Norte 0 1006.7 -1.4 78
2019-04-23 03:00:00 18.1 3 Sudeste 7 Sudeste 0 1007.2 -0.8 78
2019-04-23 02:00:00 18.3 3 Sudeste 9 Sudeste 0 1007.8 -0.3 76
2019-04-23 01:00:00 18.1 0 Calma 17 Sudeste 0 1008.1 0.7 78
2019-04-23 00:00:00 17.9 9 Sudeste 18 Sudeste 0 1008 1.1 78
2019-04-22 23:00:00 18 5 Sudeste 9 Sudeste 0 1008.1 1.2 78
2019-04-22 22:00:00 18.1 2 Sudeste 13 Noroeste 0 1007.4 0 77
2019-04-22 21:00:00 18.9 6 Noroeste 20 Norte 0 1006.9 -0.8 75
2019-04-22 20:00:00 19.5 11 Noroeste 24 Noroeste 0 1006.9 -1.1 72
2019-04-22 19:00:00 20.6 12 Noroeste 23 Noroeste 0 1007.4 -0.6 69
2019-04-22 18:00:00 21.7 14 Noroeste 30 Noroeste 0 1007.7 -0.4 67
2019-04-22 17:00:00 24.7 4 Sur 15 Sur 0 1008 -0.5 56
2019-04-22 16:00:00 24.8 10 Sur 17 Sur 0 1008 -0.9 55
2019-04-22 15:00:00 24.5 8 Sur 15 Sur 0 1008.1 -1.2 56
2019-04-22 14:00:00 23.7 6 Sudoeste 14 Oeste 0 1008.5 -0.3 58
2019-04-22 13:00:00 23.2 6 Sudoeste 15 Sudoeste 0 1008.9 0.3 62
2019-04-22 12:00:00 23 7 Sudoeste 17 Sur 0 1009.3 1.1 63
2019-04-22 11:00:00 21.6 8 Sur 20 Sur 0 1008.8 0.6 68
2019-04-22 10:00:00 19.9 6 Sur 14 Sur 0 1008.6 1 73
2019-04-22 09:00:00 18.4 2 Sudoeste 7 Sudoeste 0 1008.2 0.2 77
2019-04-22 08:00:00 17.8 3 Sur 8 Este 0 1008.2 0 76
2019-04-22 07:00:00 17.7 4 Este 9 Este 0 1007.6 -0.6 75
2019-04-22 06:00:00 17.8 5 Este 9 Este 0 1008 -0.6 76
2019-04-22 05:00:00 17.5 5 Este 10 Este 0 1008.2 -1.1 79
2019-04-22 04:00:00 16.9 7 Este 12 Este 0 1008.2 -1.4 80
2019-04-22 03:00:00 16.9 7 Este 11 Este 0 1008.6 -1.2 79
2019-04-22 02:00:00 17.1 7 Este 10 Este 0 1009.3 -0.7 77
2019-04-22 01:00:00 17.5 6 Este 9 Este 0 1009.6 0 76
2019-04-22 00:00:00 17.9 5 Este 7 Este 0 1009.8 0.8 75
2019-04-21 23:00:00 18.5 4 Este 6 Este 0 1010 1.6 72
2019-04-21 22:00:00 19.1 5 Sudeste 8 Sudeste 0 1009.6 1.1 71
2019-04-21 21:00:00 19.6 4 Sur 10 Sur 0 1009 0.2 69
2019-04-21 20:00:00 20.9 6 Sur 12 Sur 0 1008.4 -0.5 64
2019-04-21 19:00:00 22.4 6 Sur 14 Sudeste 0 1008.5 -0.6 59
2019-04-21 18:00:00 23.8 7 Sudoeste 15 Sudoeste 0 1008.8 -0.7 55
2019-04-21 17:00:00 24.5 8 Sudoeste 16 Sudoeste 0 1008.9 -0.7 52
2019-04-21 16:00:00 25.3 7 Sur 14 Sur 0 1009.1 -0.9 51
2019-04-21 15:00:00 25.7 9 Sudoeste 15 Sudoeste 0 1009.5 -0.5 51
2019-04-21 14:00:00 24.6 7 Sudoeste 15 Oeste 0 1009.6 -0.3 54
2019-04-21 13:00:00 23.2 8 Oeste 15 Sudoeste 0 1010 0.4 58
2019-04-21 12:00:00 23.4 6 Sudoeste 14 Sudoeste 0 1010 0.8 56
2019-04-21 11:00:00 21.9 6 Sur 13 Sur 0 1009.9 1.2 59
2019-04-21 10:00:00 19.9 4 Sur 11 Este 0 1009.6 1.2 66
2019-04-21 09:00:00 17 6 Este 12 Este 0 1009.2 1 71
2019-04-21 08:00:00 16.2 9 Este 14 Este 0 1008.7 0.7 70
2019-04-21 07:00:00 16.5 7 Este 15 Este 0 1008.4 0 70
2019-04-21 06:00:00 16.5 8 Este 13 Este 0 1008.2 -0.7 69
2019-04-21 05:00:00 16.5 9 Este 13 Este 0 1008 -1.5 71
2019-04-21 04:00:00 16.9 6 Este 12 Este 0 1008.4 -1.8 68
2019-04-21 03:00:00 17.8 7 Este 15 Sudeste 0 1008.9 -1.4 64
2019-04-21 02:00:00 18.1 5 Sudeste 15 Este 0 1009.5 -0.9 69
2019-04-21 01:00:00 18.2 8 Sudeste 16 Sudeste 0 1010.2 0.4 71
2019-04-21 00:00:00 18 9 Este 15 Sudeste 0 1010.3 0.9 71
2019-04-20 23:00:00 18.2 5 Este 10 Este 0 1010.4 1.2 70
2019-04-20 22:00:00 19 0 Calma 6 Sudoeste 0 1009.8 1 68
2019-04-20 21:00:00 19.3 2 Oeste 8 Sudoeste 0 1009.4 0.6 68
2019-04-20 20:00:00 20 3 Oeste 11 Sur 0 1009.2 0.2 67
2019-04-20 19:00:00 20.4 6 Sudoeste 14 Sur 0 1008.8 -0.6 64
2019-04-20 18:00:00 21 8 Sur 13 Sur 0 1008.8 -1 61
2019-04-20 17:00:00 21.3 8 Sur 14 Sur 0 1009 -1.3 60
2019-04-20 16:00:00 21.2 6 Sur 13 Sur 0 1009.4 -1.2 59
2019-04-20 15:00:00 21.2 4 Sur 12 Sudoeste 0 1009.8 -0.6 61
2019-04-20 14:00:00 21.5 6 Sur 12 Sudoeste 0 1010.3 -0.1 62
2019-04-20 13:00:00 20.5 4 Oeste 13 Oeste 0 1010.6 0.6 64
2019-04-20 12:00:00 20.4 4 Oeste 12 Sudoeste 0 1010.4 0.7 63
2019-04-20 11:00:00 20.1 4 Sudoeste 17 Sudeste 0 1010.4 0.9 66
2019-04-20 10:00:00 19.9 9 Sudeste 16 Sur 0 1010 1 65
2019-04-20 09:00:00 18.3 3 Sudeste 6 Sudeste 0 1009.7 0.6 71
2019-04-20 08:00:00 18.1 3 Noroeste 7 Noroeste 0 1009.5 0.2 73
2019-04-20 07:00:00 18.1 4 Sudoeste 12 Sudeste 0 1009 -0.7 75
2019-04-20 06:00:00 18 8 Sudeste 14 Sur 0 1009.1 -1.7 75
2019-04-20 05:00:00 18.2 5 Sur 9 Sur 0 1009.3 -2.2 75
2019-04-20 04:00:00 17.9 4 Sudeste 6 Sur 0 1009.7 -2.2 72
2019-04-20 03:00:00 18.5 3 Sur 7 Sudeste 0 1010.8 -1.3 71
2019-04-20 02:00:00 18.6 3 Sur 8 Sur 0 1011.5 -1 71
2019-04-20 01:00:00 19 5 Sur 14 Sudeste 0 1011.9 -0.4 71
2019-04-20 00:00:00 19 5 Sur 8 Sur 0 1012.1 0.2 70
2019-04-19 23:00:00 19.1 2 Sudoeste 8 Sudoeste 0 1012.5 1.4 69
2019-04-19 22:00:00 19.5 3 Sur 17 Sur 0 1012.3 1 68
2019-04-19 21:00:00 19.6 9 Sur 17 Sudoeste 0 1011.9 0.5 68
2019-04-19 20:00:00 20.5 7 Sur 16 Sudoeste 0 1011.1 -0.5 63
2019-04-19 19:00:00 22.1 7 Sudoeste 13 Sudoeste 0 1011.3 -1.1 56
2019-04-19 18:00:00 23.8 8 Sudoeste 17 Sudoeste 0 1011.4 -1.3 52
2019-04-19 17:00:00 24.3 9 Sur 17 Sur 0 1011.6 -1.2 51
2019-04-19 16:00:00 23.4 7 Sudoeste 17 Oeste 0 1012.4 -0.6 53
2019-04-19 15:00:00 23.5 9 Noroeste 18 Oeste 0 1012.7 -0.6 54
2019-04-19 14:00:00 24.5 7 Sur 18 Sudoeste 0 1012.8 -0.1 55
2019-04-19 13:00:00 22.8 7 Sur 14 Sur 0 1013 0.7 62
2019-04-19 12:00:00 21 3 Sudoeste 10 Sur 0 1013.3 1.2 66
2019-04-19 11:00:00 20.7 5 Sudoeste 13 Sur 0 1012.9 1.3 69
2019-04-19 10:00:00 19.4 8 Sur 18 Sur 0 1012.3 0.7 74
2019-04-19 09:00:00 17 3 Sur 8 Sur 0 1012.1 0.7 81
2019-04-19 08:00:00 16.5 2 Este 6 Sudeste 0 1011.6 0.2 79
2019-04-19 07:00:00 16.8 5 Este 8 Este 0 1011.6 -0.5 77
2019-04-19 06:00:00 16.6 5 Este 8 Este 0 1011.4 -1.3 77
2019-04-19 05:00:00 16.5 6 Este 8 Este 0 1011.4 -1.8 75
2019-04-19 04:00:00 17.1 5 Este 8 Este 0 1012.1 -1.3 74
2019-04-19 03:00:00 17.2 5 Este 9 Este 0 1012.7 -1 73
2019-04-19 02:00:00 17.6 5 Sudeste 10 Sur 0 1013.2 -0.5 73
2019-04-19 01:00:00 18.4 6 Sur 13 Sudeste 0 1013.4 0.2 71
2019-04-19 00:00:00 19 3 Sur 10 Sur 0 1013.7 0.8 70
2019-04-18 23:00:00 18.9 4 Sur 8 Sur 0 1013.7 1.4 67
2019-04-18 22:00:00 18.9 2 Sur 9 Sudoeste 0 1013.2 1.2 65
2019-04-18 21:00:00 19.4 2 Sur 9 Sudoeste 0 1012.9 1.3 62
2019-04-18 20:00:00 20 3 Sudoeste 8 Sudoeste 0 1012.3 0.5 60
2019-04-18 19:00:00 21 6 Sudoeste 17 Sur 0 1012 0.1 57
2019-04-18 18:00:00 22.5 10 Sur 19 Sur 0 1011.6 -0.9 53
2019-04-18 17:00:00 23.1 9 Sur 18 Sur 0 1011.8 -0.6 51
2019-04-18 16:00:00 24.6 10 Sudoeste 16 Sur 0 1011.9 -0.8 51
2019-04-18 15:00:00 23.1 8 Sudoeste 16 Sur 0 1012.5 -0.3 52
2019-04-18 14:00:00 24.3 8 Sur 15 Sur 0 1012.4 -0.3 50
2019-04-18 13:00:00 23.5 8 Sudoeste 16 Sur 0 1012.7 0.4 56
2019-04-18 12:00:00 21.3 5 Sudoeste 11 Sudoeste 0 1012.8 1.1 60
2019-04-18 11:00:00 20.4 4 Sudoeste 16 Sur 0 1012.7 1.6 62
2019-04-18 10:00:00 20.2 8 Sur 15 Sudeste 0 1012.3 1.8 64
2019-04-18 09:00:00 18 4 Sudeste 10 Sudeste 0 1011.7 1.3 66
2019-04-18 08:00:00 16.9 6 Este 10 Este 0 1011.1 0.8 67
2019-04-18 07:00:00 17.1 5 Este 9 Este 0 1010.5 0 69
2019-04-18 06:00:00 17.3 4 Este 10 Este 0 1010.4 -0.3 70
2019-04-18 05:00:00 17 8 Este 13 Este 0 1010.3 -0.8 68
2019-04-18 04:00:00 16.7 8 Este 13 Este 0 1010.5 -1 68
2019-04-18 03:00:00 17 9 Este 14 Este 0 1010.7 -0.8 68
2019-04-18 02:00:00 17.4 7 Este 12 Este 0 1011.1 0.3 72
2019-04-18 01:00:00 17.7 3 Sudeste 8 Este 0 1011.5 1.8 72
2019-04-18 00:00:00 17.9 3 Este 13 Sur 0 1011.5 2.7 71
2019-04-17 23:00:00 18.1 6 Sur 21 Sur 0 1010.8 2.4 73
2019-04-17 22:00:00 18.4 10 Sudeste 21 Sudeste 0 1009.7 1.9 71
2019-04-17 21:00:00 18.7 11 Sudeste 28 Noroeste 0 1008.8 1 69
2019-04-17 20:00:00 19 16 Noroeste 34 Noroeste 0 1008.4 0.4 71
2019-04-17 19:00:00 20 17 Noroeste 36 Noroeste 0 1007.8 -0.5 68
2019-04-17 18:00:00 21.1 17 Noroeste 35 Noroeste 0 1007.8 -0.6 63
2019-04-17 17:00:00 21.9 15 Noroeste 31 Noroeste 0 1008 -0.6 62
2019-04-17 16:00:00 22 15 Noroeste 33 Noroeste 0 1008.3 -0.3 61
2019-04-17 15:00:00 21.6 17 Noroeste 37 Noroeste 0 1008.4 -0.3 61
2019-04-17 14:00:00 21.7 16 Noroeste 33 Noroeste 0 1008.6 0.3 62
2019-04-17 13:00:00 21.5 16 Noroeste 28 Noroeste 0 1008.6 0.7 66
2019-04-17 12:00:00 20.3 11 Noroeste 26 Noroeste 0 1008.7 1.1 71
2019-04-17 11:00:00 20.6 13 Noroeste 23 Noroeste 0 1008.3 1.2 69
2019-04-17 10:00:00 18.5 7 Norte 17 Noroeste 0 1007.9 1.1 80
2019-04-17 09:00:00 17.8 5 Norte 10 Norte 0 1007.6 1.2 89
2019-04-17 08:00:00 17.6 4 Norte 12 Nordeste 0 1007.1 0.7 86
2019-04-17 07:00:00 17.8 10 Nordeste 17 Nordeste 0 1006.8 -0.2 77
2019-04-17 06:00:00 18.2 5 Norte 9 Norte 0 1006.4 -0.8 73
2019-04-17 05:00:00 18 5 Norte 12 Nordeste 0 1006.4 -1.5 71
2019-04-17 04:00:00 17.8 8 Nordeste 13 Nordeste 0 1007 -1.3 71
2019-04-17 03:00:00 17.5 7 Nordeste 12 Nordeste 0 1007.2 -1.4 70
2019-04-17 02:00:00 18 8 Nordeste 15 Norte 0 1007.9 -0.5 66
2019-04-17 01:00:00 17.5 6 Nordeste 13 Nordeste 0 1008.3 0.5 65
2019-04-17 00:00:00 17.7 8 Nordeste 16 Norte 0 1008.6 0.7 67
2019-04-16 23:00:00 17.8 8 Norte 18 Noroeste 0 1008.4 0.9 69
2019-04-16 22:00:00 18.2 7 Norte 16 Nordeste 0 1007.8 0.5 67
2019-04-16 21:00:00 18.6 8 Norte 18 Noroeste 0 1007.9 0.7 69
2019-04-16 20:00:00 19.3 10 Noroeste 18 Noroeste 0 1007.5 0 67
2019-04-16 19:00:00 19.8 10 Noroeste 17 Noroeste 0 1007.3 -1.1 63
2019-04-16 18:00:00 21.5 11 Noroeste 21 Noroeste 0 1007.2 -1.8 58
2019-04-16 17:00:00 22.2 8 Noroeste 17 Oeste 0 1007.5 -2.1 56
2019-04-16 16:00:00 22.2 10 Noroeste 18 Noroeste 0 1008.4 -1.8 57
2019-04-16 15:00:00 22.2 9 Noroeste 19 Noroeste 0 1009 -1.3 62
2019-04-16 14:00:00 21.8 9 Noroeste 17 Noroeste 0 1009.6 -0.7 68
2019-04-16 13:00:00 21.7 11 Noroeste 19 Noroeste 0 1010.2 0.3 60
2019-04-16 12:00:00 21.9 9 Noroeste 19 Norte 0 1010.3 0.8 60
2019-04-16 11:00:00 20.9 8 Noroeste 15 Noroeste 0 1010.3 1 61
2019-04-16 10:00:00 20.4 5 Norte 12 Este 0 1009.9 0.8 64
2019-04-16 09:00:00 17.6 9 Nordeste 13 Este 0 1009.5 0.8 68
2019-04-16 08:00:00 17.4 6 Nordeste 14 Este 0 1009.3 0.1 68
2019-04-16 07:00:00 17.9 9 Nordeste 15 Este 0 1009.1 -0.7 66
2019-04-16 06:00:00 18.1 11 Este 17 Este 0 1008.7 -1.8 71
2019-04-16 05:00:00 18.1 3 Nordeste 7 Nordeste 0 1009.2 -2.1 78
2019-04-16 04:00:00 18.8 0 Calma 2 Noroeste 0 1009.8 -2 84
2019-04-16 03:00:00 18.8 0 Calma 3 Norte 0 1010.5 -1.6 83
2019-04-16 02:00:00 19 0 Calma 3 Sudeste 0 1011.3 -0.9 83
2019-04-16 01:00:00 18.9 0 Calma 5 Sudeste 0 1011.8 0.1 83
2019-04-16 00:00:00 19.2 2 Sudeste 4 Sur 0 1012.1 0.7 85
2019-04-15 23:00:00 19.2 0 Calma 7 Sudeste 0 1012.2 1.2 83
2019-04-15 22:00:00 19.5 3 Sur 8 Sur 0 1011.7 0.7 81
2019-04-15 21:00:00 19.7 5 Sur 9 Sur 0 1011.4 0 79
2019-04-15 20:00:00 20.2 5 Sur 9 Sur 0 1011 -0.3 77
2019-04-15 19:00:00 20.5 3 Sur 9 Sur 0 1011 -0.7 75
2019-04-15 18:00:00 20.8 4 Sur 10 Sur 0 1011.4 -0.8 75
2019-04-15 17:00:00 21.2 5 Sur 9 Sudoeste 0 1011.3 -1.1 72
2019-04-15 16:00:00 20.6 2 Norte 10 Norte 0 1011.7 -0.9 72
2019-04-15 15:00:00 20.4 5 Norte 13 Noroeste 0 1012.2 -0.3 72
2019-04-15 14:00:00 21 5 Noroeste 13 Oeste 0 1012.4 -0.3 71
2019-04-15 13:00:00 21.6 6 Oeste 12 Sudoeste 0 1012.6 0.4 71
2019-04-15 12:00:00 22.8 5 Sudoeste 12 Sudoeste 0 1012.5 0.9 67
2019-04-15 11:00:00 21.7 3 Sur 10 Sudoeste 0 1012.7 1.4 68
2019-04-15 10:00:00 19.9 4 Sudoeste 8 Este 0 1012.2 1.3 71
2019-04-15 09:00:00 17.8 5 Este 14 Este 0 1011.6 1.2 71
2019-04-15 08:00:00 16.9 11 Este 15 Este 0 1011.3 0.8 71
2019-04-15 07:00:00 17.1 5 Nordeste 10 Este 0 1010.9 0.6 71
2019-04-15 06:00:00 16.9 8 Este 12 Nordeste 0 1010.4 -0.1 69
2019-04-15 05:00:00 17 8 Este 17 Este 0 1010.5 -0.3 77
2019-04-15 04:00:00 17 10 Este 16 Este 0 1010.3 -1.2 75
2019-04-15 03:00:00 17.2 7 Este 15 Sudeste 0 1010.5 -0.6 77
2019-04-15 02:00:00 17.7 9 Sudeste 23 Sudeste 0 1010.8 -0.1 78
2019-04-15 01:00:00 17.6 9 Sudeste 17 Sudeste 0 1011.5 1.1 79
2019-04-15 00:00:00 17.7 7 Sudeste 12 Sudeste 0 1011.1 1.5 79
2019-04-14 23:00:00 17.6 2 Noroeste 19 Noroeste 0 1010.9 1.9 79
2019-04-14 22:00:00 17.9 8 Noroeste 19 Noroeste 0 1010.4 1.1 78
2019-04-14 21:00:00 18.4 8 Noroeste 17 Noroeste 0 1009.6 0.2 75
2019-04-14 20:00:00 19.1 10 Noroeste 23 Norte 0 1009 -0.2 70
2019-04-14 19:00:00 20.3 13 Noroeste 22 Noroeste 0 1009.3 -0.5 68
2019-04-14 18:00:00 21.3 12 Noroeste 23 Noroeste 0 1009.4 -0.9 64
2019-04-14 17:00:00 22.5 11 Noroeste 21 Noroeste 0 1009.2 -1.2 62
2019-04-14 16:00:00 22.5 10 Noroeste 23 Noroeste 0 1009.8 -0.8 62
2019-04-14 15:00:00 22.7 14 Noroeste 26 Noroeste 0 1010.3 -0.5 63
2019-04-14 14:00:00 21.5 16 Noroeste 27 Noroeste 0 1010.4 0 64
2019-04-14 13:00:00 21.5 13 Noroeste 23 Noroeste 0 1010.6 0.2 63
2019-04-14 12:00:00 21.5 12 Noroeste 23 Noroeste 0 1010.8 0.7 64
2019-04-14 11:00:00 20.2 3 Noroeste 11 Oeste 0 1010.4 0.9 67
2019-04-14 10:00:00 18.7 3 Sudoeste 8 Este 0 1010.4 1 75
2019-04-14 09:00:00 16 4 Este 10 Este 0 1010.1 1.7 77
2019-04-14 08:00:00 16.1 8 Este 12 Nordeste 0 1009.5 0.7 82
2019-04-14 07:00:00 16.3 6 Nordeste 10 Nordeste 0 1009.4 -0.2 83
2019-04-14 06:00:00 16.1 3 Este 12 Nordeste 0 1008.4 -1.5 82
2019-04-14 05:00:00 16.9 6 Norte 16 Nordeste 0 1008.8 -1.9 80
2019-04-14 04:00:00 17.4 8 Norte 16 Nordeste 0 1009.6 -2.1 79
2019-04-14 03:00:00 16.7 10 Nordeste 17 Nordeste 0 1009.9 -2 75
2019-04-14 02:00:00 17.2 6 Nordeste 11 Nordeste 0 1010.7 -1.6 75
2019-04-14 01:00:00 17.2 3 Este 13 Sudeste 0 1011.7 -0.5 77
2019-04-14 00:00:00 17.6 9 Sudeste 16 Sudeste 0 1011.9 -0.1 78
2019-04-13 23:00:00 17.9 8 Sudeste 11 Sudeste 0 1012.3 1.1 77
2019-04-13 22:00:00 18.2 0 Calma 6 Noroeste 0 1012.2 1.4 77
2019-04-13 21:00:00 18.9 4 Noroeste 20 Oeste 0 1012 1.1 75
2019-04-13 20:00:00 19.6 12 Noroeste 20 Noroeste 0 1011.2 0.5 70
2019-04-13 19:00:00 20.7 12 Noroeste 21 Noroeste 0 1010.8 -0.5 67
2019-04-13 18:00:00 22.4 11 Noroeste 21 Noroeste 0 1010.9 -1.1 61
2019-04-13 17:00:00 22.6 9 Noroeste 20 Oeste 0 1010.7 -1.8 57
2019-04-13 16:00:00 23.8 8 Oeste 18 Sudoeste 0 1011.3 -1.7 57
2019-04-13 15:00:00 24.5 10 Sur 21 Sur 0 1012 -1.4 56
2019-04-13 14:00:00 24.9 12 Sur 22 Sur 0 1012.5 -0.1 56
2019-04-13 13:00:00 23.4 7 Sur 19 Noroeste 0 1013 0.5 60
2019-04-13 12:00:00 20.7 14 Noroeste 29 Norte 0 1013.4 0.9 67
2019-04-13 11:00:00 19.8 14 Noroeste 31 Noroeste 0 1012.6 0.7 70
2019-04-13 10:00:00 18.8 9 Norte 15 Norte 0 1012.5 0.8 74
2019-04-13 09:00:00 16.8 4 Este 12 Sudeste 0 1012.5 1 79
2019-04-13 08:00:00 16.4 8 Sudeste 15 Sudeste 0 1011.9 0.3 81
2019-04-13 07:00:00 16.5 4 Nordeste 17 Nordeste 0 1011.7 -0.2 79
2019-04-13 06:00:00 16.5 11 Nordeste 16 Norte 0 1011.5 -1.3 75
2019-04-13 05:00:00 16.5 4 Nordeste 12 Este 0 1011.6 -1.9 79
2019-04-13 04:00:00 16.6 6 Sudeste 12 Sudeste 0 1011.9 -1.8 78
2019-04-13 03:00:00 17.1 5 Sur 11 Nordeste 0 1012.8 -1.1 78
2019-04-13 02:00:00 17.1 5 Norte 13 Norte 0 1013.5 -0.4 76
2019-04-13 01:00:00 17.1 5 Nordeste 10 Este 0 1013.7 0.3 77
2019-04-13 00:00:00 17.4 5 Sudeste 12 Sur 0 1013.9 1 75
2019-04-12 23:00:00 18 3 Sur 10 Sudoeste 0 1013.9 1.4 73
2019-04-12 22:00:00 18.4 0 Calma 7 Oeste 0 1013.4 0.8 71
2019-04-12 21:00:00 18.5 3 Noroeste 8 Noroeste 0 1012.9 0.4 67
2019-04-12 20:00:00 20 4 Oeste 11 Oeste 0 1012.5 -0.1 63
2019-04-12 19:00:00 21.1 5 Sur 12 Sudoeste 0 1012.6 -0.5 58
2019-04-12 18:00:00 22.8 7 Sudoeste 14 Sudoeste 0 1012.5 -0.6 56
2019-04-12 17:00:00 22.6 6 Sudoeste 17 Oeste 0 1012.6 -0.5 58
2019-04-12 16:00:00 21.4 8 Oeste 22 Oeste 0 1013.1 -1.2 60
2019-04-12 15:00:00 21.4 11 Noroeste 19 Noroeste 0 1013.1 -1.3 57
2019-04-12 14:00:00 23 7 Oeste 14 Oeste 0 1013.1 -0.8 54
2019-04-12 13:00:00 23.1 4 Sudoeste 14 Sudoeste 0 1014.3 0.8 56
2019-04-12 12:00:00 20.2 3 Oeste 13 Sudoeste 0 1014.4 0.9 64
2019-04-12 11:00:00 19.3 4 Sudoeste 9 Sudoeste 0 1013.9 0.9 67
2019-04-12 10:00:00 18.4 3 Sur 9 Este 0 1013.5 0.8 70
2019-04-12 09:00:00 16.7 6 Este 12 Este 0 1013.5 0.9 72
2019-04-12 08:00:00 16.2 6 Este 11 Este 0 1013 0.4 73
2019-04-12 07:00:00 16.8 4 Este 9 Este 0 1012.7 -0.3 75
2019-04-12 06:00:00 17.5 4 Sur 13 Sur 0 1012.6 -0.9 75
2019-04-12 05:00:00 17.4 6 Sur 17 Sur 0 1012.6 -1.6 76
2019-04-12 04:00:00 17 3 Sur 9 Nordeste 0 1013 -1.3 76
2019-04-12 03:00:00 16.8 0 Calma 11 Noroeste 0 1013.5 -1.2 76
2019-04-12 02:00:00 17.5 2 Oeste 14 Sudoeste 0 1014.2 -0.8 75
2019-04-12 01:00:00 16.8 5 Sudeste 8 Sudeste 0 1014.3 0.1 76
2019-04-12 00:00:00 17.6 2 Sur 10 Sudoeste 0 1014.7 1.6 75
2019-04-11 23:00:00 17.5 3 Sudeste 5 Sudeste 0 1015 2 75
2019-04-11 22:00:00 17.6 2 Sur 9 Sur 0 1014.2 1.1 72
2019-04-11 21:00:00 18.3 5 Sur 13 Sudoeste 0 1013.1 0.1 69
2019-04-11 20:00:00 19.7 4 Sur 11 Sudoeste 0 1013 0.2 61
2019-04-11 19:00:00 21.1 4 Sudoeste 11 Sudoeste 0 1013.1 -0.6 60
2019-04-11 18:00:00 22.2 5 Sudoeste 18 Sur 0 1013 -1.1 57
2019-04-11 17:00:00 22.8 8 Sur 20 Sur 0 1012.8 -1.3 58
2019-04-11 16:00:00 22.1 9 Sudoeste 17 Sudoeste 0 1013.7 -0.8 59
2019-04-11 15:00:00 22.6 5 Sudoeste 13 Sudoeste 0 1014.1 -0.8 60
2019-04-11 14:00:00 21.8 5 Sudoeste 17 Oeste 0 1014.1 -0.8 70
2019-04-11 13:00:00 23.9 8 Sudoeste 15 Sudoeste 0 1014.5 0 55
2019-04-11 12:00:00 22 6 Sur 13 Sudoeste 0 1014.9 0.5 60
2019-04-11 11:00:00 20.5 5 Sudoeste 11 Sudoeste 0 1014.9 0.9 64
2019-04-11 10:00:00 18.6 0 Calma 5 Sudeste 0 1014.5 1.4 70
2019-04-11 09:00:00 16.8 0 Calma 9 Este 0 1014.4 1.6 76
2019-04-11 08:00:00 16.7 5 Este 10 Este 0 1014 1.4 75
2019-04-11 07:00:00 16.5 6 Este 13 Este 0 1013.1 0 72
2019-04-11 06:00:00 16.9 5 Este 12 Este 0 1012.8 -0.9 71
2019-04-11 05:00:00 17.1 6 Este 12 Este 0 1012.6 -1.2 71
2019-04-11 04:00:00 17 5 Este 10 Este 0 1013.1 -1.3 72
2019-04-11 03:00:00 17.2 5 Este 9 Este 0 1013.7 -0.9 70
2019-04-11 02:00:00 17.6 0 Calma 8 Norte 0 1013.8 -0.7 69
2019-04-11 01:00:00 18.1 4 Norte 9 Nordeste 0 1014.4 0.2 69
2019-04-11 00:00:00 18.3 0 Calma 8 Oeste 0 1014.6 0.9 68
2019-04-10 23:00:00 18.7 3 Oeste 12 Oeste 0 1014.5 1.4 68
2019-04-10 22:00:00 18.9 2 Oeste 11 Oeste 0 1014.2 1.4 67
2019-04-10 21:00:00 19.1 0 Calma 12 Sudoeste 0 1013.7 1 64
2019-04-10 20:00:00 20.4 6 Sudoeste 14 Sudoeste 0 1013.1 0.2 59
2019-04-10 19:00:00 22.2 7 Sudoeste 14 Sudoeste 0 1012.8 -0.5 54
2019-04-10 18:00:00 23.8 6 Sudoeste 17 Sudoeste 0 1012.7 -0.9 51
2019-04-10 17:00:00 23.4 5 Sudoeste 14 Sudoeste 0 1012.9 -1.2 50
2019-04-10 16:00:00 23.6 5 Sur 15 Sudeste 0 1013.3 -1.1 50
2019-04-10 15:00:00 23.2 6 Sur 12 Sur 0 1013.6 -0.8 55
2019-04-10 14:00:00 22.2 6 Sudoeste 13 Sudoeste 0 1014.1 0.1 58
2019-04-10 13:00:00 21 3 Oeste 11 Oeste 0 1014.4 0.8 62
2019-04-10 12:00:00 21.2 4 Oeste 12 Sudoeste 0 1014.4 1.4 62
2019-04-10 11:00:00 20.9 4 Sur 13 Sur 0 1014 1.5 68
2019-04-10 10:00:00 18.9 3 Sudeste 12 Este 0 1013.6 1 75
2019-04-10 09:00:00 16.3 5 Sudeste 12 Este 0 1013 0.7 78
2019-04-10 08:00:00 16 7 Este 13 Este 0 1012.5 0.3 75
2019-04-10 07:00:00 16 8 Este 13 Este 0 1012.6 0.3 77
2019-04-10 06:00:00 16.1 8 Este 12 Este 0 1012.3 -0.1 84
2019-04-10 05:00:00 16.4 5 Este 12 Este 0 1012.2 -0.7 83
2019-04-10 04:00:00 16.5 8 Este 17 Este 0 1012.3 -0.9 82
2019-04-10 03:00:00 16.6 4 Sudeste 15 Sudeste 0 1012.4 -1.2 82
2019-04-10 02:00:00 16.8 7 Este 14 Este 0 1012.9 -0.8 83
2019-04-10 01:00:00 17 2 Este 9 Este 0 1013.2 -0.2 85
2019-04-10 00:00:00 17.3 0 Calma 7 Este 0 1013.6 0.8 83
2019-04-09 23:00:00 17.6 0 Calma 6 Este 0 1013.7 1.1 82
2019-04-09 22:00:00 18.4 0 Calma -- -- 0 1013.4 0.9 79
2019-04-09 21:00:00 18.6 0 Calma 9 Noroeste 0 1012.8 0.9 77
2019-04-09 20:00:00 19.1 6 Noroeste 12 Oeste 0 1012.6 0.5 76
2019-04-09 19:00:00 19.5 6 Noroeste 10 Norte 0 1012.5 -0.3 72
2019-04-09 18:00:00 21.3 3 Sur 17 Sudeste 0 1011.9 -1.5 62
2019-04-09 17:00:00 21.6 10 Sur 20 Sur 0 1012.1 -1.9 63
2019-04-09 16:00:00 23 11 Sur 19 Sur 0 1012.8 -1.8 57
2019-04-09 15:00:00 24.2 8 Sur 19 Sudoeste 0 1013.4 -1.2 55
2019-04-09 14:00:00 23.9 8 Sur 16 Sudoeste 0 1014 -0.4 57
2019-04-09 13:00:00 20.5 4 Sudoeste 14 Noroeste 0 1014.6 0 63
2019-04-09 12:00:00 20.5 6 Noroeste 14 Noroeste 0 1014.6 0.6 62
2019-04-09 11:00:00 19.5 6 Norte 12 Norte 0 1014.4 0.4 63
2019-04-09 10:00:00 18 3 Norte 8 Este 0 1014.6 1.2 67
2019-04-09 09:00:00 16.9 5 Este 12 Este 0 1014 0.8 67
2019-04-09 08:00:00 16.2 7 Este 13 Este 0 1014 0.7 68
2019-04-09 07:00:00 16.1 7 Este 12 Este 0 1013.4 -0.1 69
2019-04-09 06:00:00 15.7 8 Este 14 Este 0 1013.2 -0.3 69
2019-04-09 05:00:00 15.4 10 Este 15 Este 0 1013.3 -0.8 69
2019-04-09 04:00:00 15.7 8 Este 15 Este 0 1013.5 -0.9 68
2019-04-09 03:00:00 15.9 8 Este 15 Este 0 1013.5 -1 64
2019-04-09 02:00:00 16.1 8 Este 13 Este 0 1014.1 -0.7 62
2019-04-09 01:00:00 16.5 9 Este 13 Este 0 1014.4 0.3 61
2019-04-09 00:00:00 17 8 Este 13 Este 0 1014.5 1 58
2019-04-08 23:00:00 17.6 9 Sudeste 14 Sudeste 0 1014.8 1.6 57
2019-04-08 22:00:00 17.9 6 Sudeste 13 Sudeste 0 1014.1 0.8 57
2019-04-08 21:00:00 18.3 5 Sudeste 9 Sudeste 0 1013.5 0.1 56
2019-04-08 20:00:00 19.1 5 Noroeste 15 Noroeste 0 1013.2 -0.2 55
2019-04-08 19:00:00 20.4 7 Noroeste 17 Oeste 0 1013.3 -0.4 54
2019-04-08 18:00:00 21.7 10 Noroeste 18 Oeste 0 1013.4 -0.5 51
2019-04-08 17:00:00 22.2 10 Noroeste 19 Noroeste 0 1013.4 -1 49
2019-04-08 16:00:00 22.6 8 Noroeste 19 Oeste 0 1013.7 -1.3 48
2019-04-08 15:00:00 22.3 9 Noroeste 21 Noroeste 0 1013.9 -1.2 49
2019-04-08 14:00:00 22.1 11 Noroeste 20 Oeste 0 1014.4 -0.9 51
2019-04-08 13:00:00 22 4 Oeste 14 Sudoeste 0 1015 -0.2 51
2019-04-08 12:00:00 22.1 6 Sudoeste 11 Sudoeste 0 1015.1 0.4 52
2019-04-08 11:00:00 19.4 3 Sudoeste 9 Oeste 0 1015.3 1.1 58
2019-04-08 10:00:00 18.9 0 Calma 5 Nordeste 0 1015.2 1.6 55
2019-04-08 09:00:00 17.5 3 Nordeste 12 Este 0 1014.7 1.2 60
2019-04-08 08:00:00 17.3 6 Este 11 Este 0 1014.2 0.4 60
2019-04-08 07:00:00 17.2 5 Nordeste 9 Sudeste 0 1013.6 -0.5 61
2019-04-08 06:00:00 17.3 3 Este 6 Este 0 1013.5 -1.1 65
2019-04-08 05:00:00 17.4 3 Este 5 Este 0 1013.8 -1.1 71
2019-04-08 04:00:00 17.4 0 Calma 7 Este 0 1014.1 -0.9 73
2019-04-08 03:00:00 17.6 3 Este 6 Este 0 1014.6 -0.5 72
2019-04-08 02:00:00 17.7 0 Calma 7 Sudeste 0 1014.9 -0.2 73
2019-04-08 01:00:00 17.8 4 Sudeste 9 Sudeste 0 1015 0.2 72
2019-04-08 00:00:00 17.5 5 Sudeste 10 Sudeste 0 1015.1 0.6 71
2019-04-07 23:00:00 17.6 6 Sudeste 9 Sudeste 0 1015.1 0.8 74
2019-04-07 22:00:00 17.9 2 Norte 17 Noroeste 0 1014.8 0.6 73
2019-04-07 21:00:00 18 8 Noroeste 16 Noroeste 0 1014.5 0.2 72
2019-04-07 20:00:00 18.6 7 Noroeste 18 Noroeste 0 1014.3 0.1 67
2019-04-07 19:00:00 19.5 10 Noroeste 17 Noroeste 0 1014.2 -0.3 60
2019-04-07 18:00:00 19.6 9 Noroeste 21 Noroeste 0 1014.3 -0.8 63
2019-04-07 17:00:00 19.3 10 Noroeste 22 Noroeste 0 1014.2 -1.4 68
2019-04-07 16:00:00 20.6 11 Noroeste 19 Noroeste 0 1014.5 -1.4 67
2019-04-07 15:00:00 19.8 9 Noroeste 17 Noroeste 0 1015.1 -1 66
2019-04-07 14:00:00 20.2 7 Noroeste 13 Noroeste 0 1015.6 -0.1 63
2019-04-07 13:00:00 20.5 6 Sudoeste 11 Sudoeste 0 1015.9 0.7 61
2019-04-07 12:00:00 20.7 4 Sudoeste 12 Sudoeste 0 1016.1 1.4 63
2019-04-07 11:00:00 20.4 5 Sudoeste 9 Sudoeste 0 1015.7 1.5 62
2019-04-07 10:00:00 18.7 3 Sudoeste 8 Sudoeste 0 1015.2 1.4 66
2019-04-07 09:00:00 17.6 0 Calma 5 Sudeste 0 1014.7 1.2 67
2019-04-07 08:00:00 17.1 3 Sudeste 6 Este 0 1014.2 0.8 63
2019-04-07 07:00:00 17.2 4 Este 10 Sudeste 0 1013.8 -0.2 63
2019-04-07 06:00:00 17.1 5 Este 10 Este 0 1013.5 -0.6 64
2019-04-07 05:00:00 16.9 4 Este 13 Este 0 1013.4 -1.2 68
2019-04-07 04:00:00 16.2 7 Este 13 Este 0 1014 -0.9 68
2019-04-07 03:00:00 16.1 7 Este 11 Este 0 1014.1 -1 66
2019-04-07 02:00:00 17.2 3 Este 6 Este 0 1014.6 -0.5 67
2019-04-07 01:00:00 17.7 4 Sudeste 7 Sudeste 0 1014.9 0.2 67
2019-04-07 00:00:00 17.4 4 Este 8 Este 0 1015.1 0.8 67
2019-04-06 23:00:00 17.2 4 Sudeste 8 Sur 0 1015.1 0.9 66
2019-04-06 22:00:00 17.6 3 Sur 9 Sur 0 1014.7 0.7 63
2019-04-06 21:00:00 18.8 4 Sur 12 Sur 0 1014.3 0.6 58
2019-04-06 20:00:00 19.7 6 Sur 14 Sur 0 1014.2 0.3 54
2019-04-06 19:00:00 20.6 7 Sur 14 Sur 0 1014 -0.2 52
2019-04-06 18:00:00 22.2 8 Sur 15 Sur 0 1013.7 -1 47
2019-04-06 17:00:00 23 6 Sudoeste 14 Sudoeste 0 1013.9 -1.2 45
2019-04-06 16:00:00 24.4 4 Sudoeste 20 Sur 0 1014.2 -0.9 44
2019-04-06 15:00:00 24.6 8 Sur 17 Sur 0 1014.7 -0.4 44
2019-04-06 14:00:00 23.6 9 Sudoeste 15 Sur 0 1015.1 0.4 45
2019-04-06 13:00:00 22.9 6 Sur 18 Sur 0 1015.1 0.7 48
2019-04-06 12:00:00 21.8 9 Sudoeste 17 Sur 0 1015.1 1.3 50
2019-04-06 11:00:00 19.8 7 Sur 16 Sur 0 1014.7 1.3 52
2019-04-06 10:00:00 18.2 5 Sudeste 20 Sudeste 0 1014.4 1.8 57
2019-04-06 09:00:00 16.5 9 Sudeste 17 Sudeste 0 1013.8 1.5 62
2019-04-06 08:00:00 15.2 8 Este 14 Este 0 1013.4 1.3 62
2019-04-06 07:00:00 15.6 7 Este 13 Este 0 1012.6 0.3 63
2019-04-06 06:00:00 15.8 7 Este 13 Este 0 1012.3 -0.5 64
2019-04-06 05:00:00 15.8 6 Este 13 Este 0 1012.1 -1.2 64
2019-04-06 04:00:00 16 7 Este 11 Este 0 1012.3 -1.3 64
2019-04-06 03:00:00 16.3 6 Este 10 Este 0 1012.8 -1.1 64
2019-04-06 02:00:00 16.3 5 Este 13 Este 0 1013.3 -0.3 63
2019-04-06 01:00:00 16.2 7 Este 13 Este 0 1013.6 0.8 62
2019-04-06 00:00:00 16.6 6 Este 13 Este 0 1013.9 2.1 61
2019-04-05 23:00:00 17.3 5 Sur 17 Sur 0 1013.6 2.7 64
2019-04-05 22:00:00 17.4 6 Sudeste 21 Sur 0 1012.8 2 61
2019-04-05 21:00:00 18 4 Sudeste 38 Noroeste 0 1011.8 1 58
2019-04-05 20:00:00 18.1 17 Noroeste 39 Noroeste 0 1010.9 0.2 60
2019-04-05 19:00:00 19.9 16 Noroeste 39 Norte 0 1010.8 -0.1 52
2019-04-05 18:00:00 20.2 22 Noroeste 44 Noroeste 0 1010.8 -1.2 52
2019-04-05 17:00:00 20 24 Noroeste 52 Noroeste 0 1010.7 -2 59
2019-04-05 16:00:00 21.2 20 Noroeste 45 Norte 0 1010.9 -2.1 57
2019-04-05 15:00:00 21.2 16 Noroeste 39 Noroeste 0 1012 -0.8 59
2019-04-05 14:00:00 20.5 23 Noroeste 47 Noroeste 0 1012.7 0.5 63
2019-04-05 13:00:00 21.4 10 Noroeste 23 Noroeste 0 1013 1.3 54
2019-04-05 12:00:00 20.9 6 Oeste 18 Noroeste 0 1012.8 1.7 56
2019-04-05 11:00:00 19.4 10 Noroeste 24 Noroeste 0 1012.2 1.6 63
2019-04-05 10:00:00 17.7 2 Nordeste 11 Nordeste 0 1011.7 1.6 63
2019-04-05 09:00:00 15.8 7 Este 12 Este 0 1011.1 1.1 65
2019-04-05 08:00:00 15.4 7 Este 17 Este 0 1010.6 1 63
2019-04-05 07:00:00 15.6 8 Este 21 Sudeste 0 1010.1 0.4 64
2019-04-05 06:00:00 15.8 7 Este 14 Este 0 1010 0 63
2019-04-05 05:00:00 16.3 8 Sudeste 14 Sudeste 0 1009.6 -0.8 66
2019-04-05 04:00:00 16.7 3 Sudeste 13 Este 0 1009.7 -0.4 66
2019-04-05 03:00:00 16.6 8 Este 13 Este 0 1010 0.3 66
2019-04-05 02:00:00 16.5 4 Este 10 Sudeste 0 1010.4 0.8 68
2019-04-05 01:00:00 17 6 Sudeste 11 Sudeste 0 1010.1 0.9 67
2019-04-05 00:00:00 17 6 Sudeste 10 Este 0 1009.7 1.6 68
2019-04-04 23:00:00 17.3 5 Sudeste 9 Sudeste 0 1009.6 2 68
2019-04-04 22:00:00 17.5 5 Sur 16 Sur 0 1009.2 1.9 68
2019-04-04 21:00:00 17.9 10 Sur 28 Sur 0 1008.1 0.6 67
2019-04-04 20:00:00 18.8 13 Sur 29 Sur 0 1007.6 0.2 62
2019-04-04 19:00:00 20.6 11 Sur 25 Sur 0 1007.3 -0.2 58
2019-04-04 18:00:00 21.7 13 Sur 26 Sur 0 1007.5 -0.2 53
2019-04-04 17:00:00 23.6 12 Sur 28 Sur 0 1007.4 -0.8 51
2019-04-04 16:00:00 23.6 13 Sur 32 Sur 0 1007.5 -1 51
2019-04-04 15:00:00 23.6 15 Sur 27 Sur 0 1007.7 -0.8 50
2019-04-04 14:00:00 23.3 10 Sur 22 Sudeste 0 1008.2 0 53
2019-04-04 13:00:00 22.7 10 Sur 18 Sur 0 1008.5 0.9 58
2019-04-04 12:00:00 20.8 5 Sur 13 Sur 0 1008.5 1.6 63
2019-04-04 11:00:00 19.2 4 Sur 10 Este 0 1008.2 2.2 68
2019-04-04 10:00:00 17.6 5 Sudeste 10 Sudeste 0 1007.6 2.3 72
2019-04-04 09:00:00 16.1 4 Este 13 Este 0 1006.9 2.1 75
2019-04-04 08:00:00 15.7 9 Este 15 Este 0 1006 1.3 76
2019-04-04 07:00:00 15.4 9 Sudeste 15 Este 0 1005.3 0 77
2019-04-04 06:00:00 14.8 6 Sudeste 12 Este 0 1004.8 -0.8 75
2019-04-04 05:00:00 14.8 5 Este 10 Este 0 1004.7 -1.2 74
2019-04-04 04:00:00 15.2 4 Sudeste 9 Este 0 1005.3 -1 75
2019-04-04 03:00:00 15 4 Este 12 Este 0 1005.6 -1.1 73
2019-04-04 02:00:00 15.1 6 Este 10 Este 0 1005.9 -1 75
2019-04-04 01:00:00 15.4 0 Calma 6 Norte 0 1006.3 -0.1 79
2019-04-04 00:00:00 15.3 0 Calma 13 Nordeste 0 1006.7 1.1 81
2019-04-03 23:00:00 15.6 5 Norte 28 Noroeste 0 1006.9 1.4 77
2019-04-03 22:00:00 16.4 11 Noroeste 26 Noroeste 0 1006.4 1.2 72
2019-04-03 21:00:00 16.7 12 Noroeste 22 Noroeste 0 1005.6 0.4 71
2019-04-03 20:00:00 17.6 8 Noroeste 18 Noroeste 0 1005.5 0.4 66
2019-04-03 19:00:00 18.8 10 Noroeste 21 Noroeste 0 1005.2 -0.1 62
2019-04-03 18:00:00 20 13 Noroeste 23 Noroeste 0 1005.2 -0.5 60
2019-04-03 17:00:00 20.8 14 Noroeste 24 Noroeste 0 1005.1 -1.1 60
2019-04-03 16:00:00 20.5 11 Noroeste 23 Noroeste 0 1005.3 -1.7 59
2019-04-03 15:00:00 20.6 15 Noroeste 28 Noroeste 0 1005.7 -1.1 57
2019-04-03 14:00:00 20.5 14 Noroeste 23 Norte 0 1006.2 -0.4 61
2019-04-03 13:00:00 18 19 Noroeste 37 Noroeste 0 1007 1 66
2019-04-03 12:00:00 19.6 13 Noroeste 22 Noroeste 0 1006.8 1.4 64
2019-04-03 11:00:00 18 11 Noroeste 21 Noroeste 0 1006.6 1.5 69
2019-04-03 10:00:00 16.7 4 Norte 12 Norte 0 1006 1.2 69
2019-04-03 09:00:00 15.3 5 Nordeste 13 Norte 0 1005.4 1.1 71
2019-04-03 08:00:00 15.1 6 Norte 13 Nordeste 0 1005.1 0.7 73
2019-04-03 07:00:00 14.9 8 Nordeste 12 Este 0 1004.8 0.1 74
2019-04-03 06:00:00 14.6 10 Este 12 Este 0 1004.3 -0.6 75
2019-04-03 05:00:00 14.9 7 Este 15 Nordeste 0 1004.4 -0.8 74
2019-04-03 04:00:00 14.9 9 Este 12 Este 0 1004.7 -1 72
2019-04-03 03:00:00 14.9 8 Este 15 Este 0 1004.9 -0.9 72
2019-04-03 02:00:00 15.2 9 Este 15 Este 0 1005.2 -0.2 73
2019-04-03 01:00:00 15.5 8 Este 14 Este 0 1005.7 1 71
2019-04-03 00:00:00 15.9 9 Este 12 Nordeste 0 1005.8 1.8 74
2019-04-02 23:00:00 16.3 6 Este 10 Este 0 1005.4 1.7 74
2019-04-02 22:00:00 16.9 5 Sudeste 10 Sur 0 1004.7 1 72
2019-04-02 21:00:00 17.3 5 Sur 15 Sudoeste 0 1004 0.5 70
2019-04-02 20:00:00 18.4 5 Sur 14 Sudoeste 0 1003.7 0.1 65
2019-04-02 19:00:00 19.6 8 Sur 18 Sur 0 1003.7 -0.4 62
2019-04-02 18:00:00 20.7 9 Sur 17 Sur 0 1003.5 -1.1 59
2019-04-02 17:00:00 22.1 6 Sur 15 Sur 0 1003.6 -1.4 57
2019-04-02 16:00:00 22 9 Sudoeste 15 Sudoeste 0 1004.1 -1.2 58
2019-04-02 15:00:00 21.1 6 Sur 13 Oeste 0 1004.6 -0.8 63
2019-04-02 14:00:00 20.1 7 Oeste 13 Oeste 0 1005 -0.1 66
2019-04-02 13:00:00 18.6 5 Noroeste 14 Oeste 0 1005.3 0.4 68
2019-04-02 12:00:00 18 4 Sur 10 Sur 0 1005.4 0.7 73
2019-04-02 11:00:00 16.9 2 Noroeste 8 Nordeste 0 1005.1 1.4 73
2019-04-02 10:00:00 15.5 5 Nordeste 9 Nordeste 0 1004.9 1.6 86
2019-04-02 09:00:00 14.5 4 Nordeste 9 Nordeste 0 1004.7 1.4 87
2019-04-02 08:00:00 13.9 2 Sudeste 9 Este 0.1 1003.7 -1 88
2019-04-02 07:00:00 13.9 6 Norte 10 Nordeste 0 1003.3 -1.4 88
2019-04-02 06:00:00 13.7 3 Sur 13 Sudeste 0.8 1003.3 -1.7 93
2019-04-02 05:00:00 14 6 Sudeste 12 Sudeste 0.2 1004.7 -0.6 94
2019-04-02 04:00:00 14.3 6 Sudeste 12 Sudeste 0.6 1004.7 -1.1 94
2019-04-02 03:00:00 14.2 3 Sudeste 6 Este 0.2 1005 -1.7 94
2019-04-02 02:00:00 14.3 2 Sur 6 Sur 0 1005.3 -1.3 94
2019-04-02 01:00:00 14.3 6 Sudeste 12 Sudeste 0 1005.8 -0.3 94
2019-04-02 00:00:00 14.6 0 Calma 5 Noroeste 0.1 1006.7 1.2 94
2019-04-01 23:00:00 14.9 3 Sudoeste 8 Sudeste 0.9 1006.6 1.1 94
2019-04-01 22:00:00 15.2 5 Sudeste 8 Sudeste 0.4 1006.1 0.7 93
2019-04-01 21:00:00 15.1 0 Calma 11 Noroeste 0.9 1005.5 -0.3 92
2019-04-01 20:00:00 15.6 7 Norte 15 Noroeste 0.5 1005.5 -0.3 92
2019-04-01 19:00:00 16 6 Norte 21 Nordeste 0.4 1005.4 -0.3 85
2019-04-01 18:00:00 16 7 Norte 17 Noroeste 0.6 1005.8 -0.4 83
2019-04-01 17:00:00 17.1 9 Norte 19 Norte 0.5 1005.8 -1.5 79
2019-04-01 16:00:00 19.1 6 Noroeste 12 Noroeste 0 1005.7 -1.9 70
2019-04-01 15:00:00 20.1 4 Oeste 9 Sudoeste 0 1006.2 -1.9 61
2019-04-01 14:00:00 20.4 6 Sudoeste 14 Sudoeste 0 1007.3 -1.2 63
2019-04-01 13:00:00 21.1 7 Sudoeste 14 Sudoeste 0 1007.6 -0.5 63
2019-04-01 12:00:00 20.9 8 Sur 17 Sur 0 1008.1 0.4 66
2019-04-01 11:00:00 19.7 6 Sur 16 Sur 0 1008.5 0.9 71
2019-04-01 10:00:00 18.2 7 Sur 13 Sur 0 1008.1 0.6 75
2019-04-01 09:00:00 16.9 5 Sudeste 12 Sur 0 1007.7 0.5 76
2019-04-01 08:00:00 16.4 6 Este 12 Este 0 1007.6 0.2 72
2019-04-01 07:00:00 16.2 7 Este 11 Este 0 1007.5 -0.2 69
2019-04-01 06:00:00 15.7 6 Este 12 Este 0 1007.2 -1.1 68
2019-04-01 05:00:00 15.6 9 Este 14 Este 0 1007.4 -1.6 71
2019-04-01 04:00:00 15.8 7 Este 14 Este 0 1007.7 -1.6 70
2019-04-01 03:00:00 15.9 6 Este 10 Este 0 1008.3 -1.4 69
2019-04-01 02:00:00 16.1 5 Este 12 Este 0 1009 -0.6 68
2019-04-01 01:00:00 16.3 7 Este 11 Este 0 1009.3 0 66
2019-04-01 00:00:00 16.5 2 Nordeste 12 Este 0 1009.7 0.6 67
2019-03-31 23:00:00 17.2 6 Sudeste 19 Noroeste 0 1009.6 0.8 69
2019-03-31 22:00:00 17.4 8 Noroeste 26 Noroeste 0 1009.3 0.6 71
2019-03-31 21:00:00 17.6 10 Noroeste 24 Noroeste 0 1009.1 0.5 70
2019-03-31 20:00:00 18.2 12 Noroeste 24 Noroeste 0 1008.8 -0.2 69
2019-03-31 19:00:00 19.4 14 Noroeste 27 Noroeste 0 1008.7 -0.6 64
2019-03-31 18:00:00 20 16 Noroeste 27 Noroeste 0 1008.6 -1.4 61
2019-03-31 17:00:00 21 13 Noroeste 26 Noroeste 0 1009 -1.3 62
2019-03-31 16:00:00 21.8 11 Noroeste 23 Noroeste 0 1009.3 -0.9 63
2019-03-31 15:00:00 21.3 12 Noroeste 24 Noroeste 0 1010 -0.2 62
2019-03-31 14:00:00 21.3 13 Noroeste 27 Norte 0 1010.3 0.1 63
2019-03-31 13:00:00 20.6 15 Noroeste 31 Noroeste 0 1010.2 -0.2 66
2019-03-31 12:00:00 19.4 17 Noroeste 30 Noroeste 0 1010.2 0.4 73
2019-03-31 11:00:00 19.2 13 Noroeste 22 Noroeste 0 1010.2 1 75
2019-03-31 10:00:00 17.8 3 Noroeste 13 Oeste 0 1010.4 1.7 73
2019-03-31 09:00:00 15.9 4 Sur 9 Sudeste 0 1009.8 0.8 79
2019-03-31 08:00:00 15.7 5 Este 10 Este 0 1009.2 0.1 74
2019-03-31 07:00:00 15.8 5 Este 12 Nordeste 0 1008.7 -0.9 75
2019-03-31 06:00:00 16.3 6 Norte 15 Norte 0 1009 -1.5 77
2019-03-31 05:00:00 16.1 4 Este 10 Norte 0 1009.1 -1.9 78
2019-03-31 04:00:00 16 2 Norte 10 Nordeste 0 1009.6 -1.9 77
2019-03-31 00:00:00 16.6 5 Este 12 Este 0 1011.5 0.4 69
2019-03-30 23:00:00 16.7 5 Este 9 Nordeste 0 1011.5 0.8 71
2019-03-30 22:00:00 17 6 Este 9 Este 0 1010.9 0.5 69
2019-03-30 21:00:00 17.6 2 Sudeste 7 Noroeste 0 1011.1 1 74
2019-03-30 20:00:00 17.7 4 Noroeste 11 Noroeste 0 1010.7 0.6 70
2019-03-30 19:00:00 18.8 5 Noroeste 14 Oeste 0 1010.4 0.5 65
2019-03-30 18:00:00 20 7 Noroeste 17 Oeste 0 1010.1 0 61
2019-03-30 17:00:00 21.7 9 Noroeste 18 Oeste 0 1010.1 -0.2 59
2019-03-30 16:00:00 22.1 8 Oeste 21 Noroeste 0 1009.9 -0.4 57
2019-03-30 15:00:00 21.6 10 Noroeste 23 Noroeste 0 1010.1 -0.7 57
2019-03-30 14:00:00 21.6 12 Noroeste 21 Noroeste 0 1010.3 -0.7 57
2019-03-30 13:00:00 23.3 10 Sur 19 Sur 0 1010.3 -0.3 54
2019-03-30 12:00:00 22.2 8 Sudoeste 16 Sudoeste 0 1010.8 0.7 56
2019-03-30 11:00:00 20.8 8 Sudoeste 14 Sudoeste 0 1011 1.6 61
2019-03-30 10:00:00 19.2 6 Sur 12 Sur 0 1010.6 1.7 64
2019-03-30 09:00:00 17.2 6 Sudeste 12 Sudeste 0 1010.1 1.8 68
2019-03-30 08:00:00 15.3 7 Este 13 Sudeste 0 1009.4 1 68
2019-03-30 07:00:00 15 9 Sudeste 14 Sudeste 0 1008.9 0.4 67
2019-03-30 06:00:00 14.7 8 Este 14 Este 0 1008.3 -0.7 67
2019-03-30 05:00:00 14.7 7 Este 14 Este 0 1008.4 -1 68
2019-03-30 04:00:00 15.3 6 Nordeste 13 Norte 0 1008.5 -1.3 68
2019-03-30 03:00:00 15.2 5 Nordeste 10 Este 0 1009 -0.9 68
2019-03-30 02:00:00 15.1 6 Este 12 Este 0 1009.4 -0.6 66
2019-03-30 01:00:00 15.4 7 Este 11 Este 0 1009.8 -0.1 65
2019-03-30 00:00:00 15.8 5 Este 12 Este 0 1009.9 0.5 64
2019-03-29 23:00:00 16.1 8 Este 13 Este 0 1010 1.3 63
2019-03-29 22:00:00 16.2 7 Este 12 Este 0 1009.9 1.7 66
2019-03-29 21:00:00 16.8 4 Este 10 Noroeste 0 1009.4 1.3 69
2019-03-29 20:00:00 17.3 4 Noroeste 11 Noroeste 0 1008.7 0.5 65
2019-03-29 19:00:00 18.4 6 Noroeste 14 Noroeste 0 1008.2 -0.2 60
2019-03-29 18:00:00 19.2 7 Noroeste 16 Noroeste 0 1008.1 -0.6 58
2019-03-29 17:00:00 19 8 Noroeste 15 Noroeste 0 1008.2 -1.2 60
2019-03-29 16:00:00 20 9 Noroeste 18 Oeste 0 1008.4 -1.4 62
2019-03-29 15:00:00 21.1 9 Noroeste 17 Noroeste 0 1008.7 -1.7 58
2019-03-29 14:00:00 21.5 5 Oeste 17 Noroeste 0 1009.4 -1.1 54
2019-03-29 13:00:00 21.1 6 Oeste 16 Oeste 0 1009.8 -0.4 60
2019-03-29 12:00:00 20.1 7 Noroeste 15 Noroeste 0 1010.4 0.4 65
2019-03-29 11:00:00 19.6 7 Oeste 13 Oeste 0 1010.5 0.6 66
2019-03-29 10:00:00 18.7 6 Oeste 10 Oeste 0 1010.2 0.9 72
2019-03-29 09:00:00 17 3 Este 13 Este 0 1010 1.2 68
2019-03-29 08:00:00 14.9 9 Este 15 Este 0 1009.9 1.2 68
2019-03-29 07:00:00 14.7 10 Este 15 Este 0 1009.3 0.5 68
2019-03-29 06:00:00 15 9 Este 15 Este 0 1008.8 -0.4 69
2019-03-29 05:00:00 15 8 Este 13 Este 0 1008.7 -0.9 71
2019-03-29 04:00:00 15.1 8 Este 14 Este 0 1008.8 -1.4 65
2019-03-29 03:00:00 15.4 9 Este 15 Este 0 1009.2 -1.1 72
2019-03-29 02:00:00 15.5 9 Este 14 Este 0 1009.6 -1.1 72
2019-03-29 01:00:00 16.1 8 Este 14 Este 0 1010.2 -0.3 72
2019-03-29 00:00:00 16.1 7 Este 11 Este 0 1010.3 0 72
2019-03-28 23:00:00 16.7 3 Sudeste 10 Este 0 1010.7 0.9 78
2019-03-28 22:00:00 17 4 Sudeste 6 Sudeste 0 1010.5 1 80
2019-03-28 21:00:00 17.6 0 Calma 6 Norte 0 1010.3 1 79
2019-03-28 20:00:00 17.9 3 Noroeste 9 Noroeste 0 1009.8 0.6 77
2019-03-28 19:00:00 18.8 6 Noroeste 11 Noroeste 0 1009.5 0.4 73
2019-03-28 18:00:00 18.6 3 Norte 13 Sudoeste 0 1009.3 -0.3 74
2019-03-28 17:00:00 20.1 5 Sudoeste 15 Sudoeste 0 1009.2 -0.5 67
2019-03-28 16:00:00 22.9 9 Sudoeste 17 Sudoeste 0 1009.1 -1.2 62
2019-03-28 15:00:00 20.8 8 Noroeste 18 Noroeste 0 1009.6 -1.2 69
2019-03-28 14:00:00 20.6 9 Noroeste 17 Norte -- 1009.7 -1.1 69
2019-03-28 13:00:00 19.7 9 Noroeste 15 Norte 0 1010.3 -0.3 74
2019-03-28 12:00:00 19.6 5 Noroeste 10 Oeste 0 1010.8 0.3 71
2019-03-28 11:00:00 19.6 3 Oeste 9 Noroeste 0 1010.8 0.8 72
2019-03-28 10:00:00 18.7 3 Sudoeste 7 Sur 0 1010.6 1 78
2019-03-28 09:00:00 17.7 2 Sudoeste 10 Este 0 1010.5 1.3 78
2019-03-28 08:00:00 16.2 8 Este 12 Este 0 1010 1 75
2019-03-28 07:00:00 15.9 8 Este 13 Este 0 1009.6 0.5 75
2019-03-28 06:00:00 16.1 8 Este 13 Sudeste 0 1009.2 -0.2 75
2019-03-28 05:00:00 16.2 6 Este 13 Este 0 1009 -0.4 69
2019-03-28 04:00:00 16.6 8 Este 13 Este 0 1009.1 -0.5 70
2019-03-28 03:00:00 16.6 8 Este 14 Este 0 1009.4 -0.5 70
2019-03-28 02:00:00 16.5 9 Este 14 Este 0 1009.4 -0.6 70
2019-03-28 01:00:00 16.6 9 Este 13 Este 0 1009.6 -0.3 70
2019-03-28 00:00:00 17 9 Este 11 Nordeste 0 1009.9 0.7 71
2019-03-27 23:00:00 17.3 6 Este 10 Este 0 1010 1.6 71
2019-03-27 22:00:00 17.7 5 Este 9 Este 0 1009.9 1.7 72
2019-03-27 21:00:00 18.1 6 Sudeste 13 Sur 0 1009.2 1.3 74
2019-03-27 20:00:00 18.7 8 Sur 19 Sudeste 0 1008.4 0.7 73
2019-03-27 19:00:00 19.8 11 Sur 21 Sur 0 1008.2 0.5 69
2019-03-27 18:00:00 21.1 10 Sur 18 Sur 0 1007.9 0.1 64
2019-03-27 17:00:00 22.4 10 Sur 19 Sur 0 1007.7 -0.5 59
2019-03-27 16:00:00 24.2 9 Sur 19 Sur 0 1007.7 -1 55
2019-03-27 15:00:00 24.1 6 Sur 17 Sudoeste 0 1007.8 -1.3 56
2019-03-27 14:00:00 24.4 9 Sudoeste 18 Sur 0 1008.2 -0.7 58
2019-03-27 13:00:00 23.8 8 Sur 18 Sudoeste 0 1008.7 0.3 61
2019-03-27 12:00:00 22.6 9 Sur 15 Sur 0 1009.1 1.4 64
2019-03-27 11:00:00 21.6 7 Sur 13 Sur 0 1008.9 1.5 66
2019-03-27 10:00:00 19.7 5 Sudoeste 9 Sur 0 1008.4 1.6 70
2019-03-27 09:00:00 17.6 2 Sudeste 10 Este 0 1007.7 1.7 72
2019-03-27 08:00:00 16.4 6 Este 12 Este 0 1007.4 1.8 71
2019-03-27 07:00:00 16.1 7 Este 13 Este 0 1006.8 1.3 72
2019-03-27 06:00:00 16.1 8 Este 13 Este 0 1006 0.5 74
2019-03-27 05:00:00 16.5 9 Este 12 Este 0 1005.6 -0.2 70
2019-03-27 04:00:00 17 5 Este 10 Este 0 1005.5 -0.3 74
2019-03-27 03:00:00 16.8 6 Este 12 Este 0 1005.5 -0.1 71
2019-03-27 02:00:00 17.4 4 Sudeste 11 Este 0 1005.8 0.6 76
2019-03-27 01:00:00 17.4 4 Este 10 Este 0 1005.8 0.8 76
2019-03-27 00:00:00 17.5 5 Este 12 Este 0 1005.6 1.2 73
2019-03-26 23:00:00 17.7 6 Este 11 Este 0 1005.2 1.5 76
2019-03-26 22:00:00 18.2 6 Sudeste 9 Sudeste 0 1005 2 79
2019-03-26 21:00:00 18.4 4 Sudeste 6 Sudeste 0 1004.4 2.2 78
2019-03-26 20:00:00 18.9 0 Calma 11 Sur 0 1003.7 1.8 75
2019-03-26 19:00:00 20.3 5 Sur 11 Sur 0 1003 1.7 71
2019-03-26 18:00:00 21.3 6 Sur 19 Sur 0 1002.2 0.8 67
2019-03-26 17:00:00 23 7 Sur 16 Sudoeste 0 1001.9 0.4 62
2019-03-26 16:00:00 23.6 11 Sur 18 Sur 0 1001.3 -0.4 62
2019-03-26 15:00:00 23.9 9 Sur 19 Sudoeste 0 1001.4 -0.6 60
2019-03-26 14:00:00 23.5 7 Sur 17 Sudoeste 0 1001.5 -0.4 62
2019-03-26 13:00:00 22.8 9 Sur 17 Sur 0 1001.7 0.3 64
2019-03-26 12:00:00 21.8 8 Sur 13 Sur 0 1002 1.3 66
2019-03-26 11:00:00 20.4 7 Sudoeste 12 Sudoeste 0 1001.9 1.7 69
2019-03-26 10:00:00 19.3 7 Sur 13 Sur 0 1001.4 2 72
2019-03-26 09:00:00 16.7 5 Sudeste 13 Sudeste 0 1000.7 1.3 81
2019-03-26 08:00:00 15.8 9 Sudeste 14 Sudeste 0 1000.2 0.7 79
2019-03-26 07:00:00 16.1 7 Sudeste 13 Sudeste 0 999.4 -0.2 78
2019-03-26 06:00:00 15.7 5 Este 13 Nordeste 0 999.4 -0.4 75
2019-03-26 05:00:00 14.9 8 Nordeste 13 Este 0 999.5 -0.8 76
2019-03-26 04:00:00 14.7 7 Nordeste 12 Este 0 999.6 -1 78
2019-03-26 03:00:00 14.9 7 Este 11 Este 0 999.8 -0.7 79
2019-03-26 02:00:00 14.9 7 Este 11 Este 0 1000.3 -0.2 78
2019-03-26 01:00:00 15 5 Nordeste 10 Este 0 1000.6 -0.2 77
2019-03-26 00:00:00 14.7 7 Este 16 Este 0 1000.5 0.5 76
2019-03-25 23:00:00 14.5 8 Este 12 Este 0 1000.5 0.9 80
2019-03-25 22:00:00 15 8 Este 10 Este 0 1000.8 1.7 81
2019-03-25 21:00:00 15.4 2 Este 8 Este 0 1000 0.9 81
2019-03-25 20:00:00 16.2 4 Nordeste 7 Nordeste 0 999.6 0.8 82
2019-03-25 19:00:00 16.6 3 Noroeste 7 Norte 0 999.1 0.5 78
2019-03-25 18:00:00 17.1 4 Norte 8 Norte 0.1 999.1 0 75
2019-03-25 17:00:00 17.3 4 Noroeste 11 Noroeste 0 998.8 -1.4 78
2019-03-25 16:00:00 17.8 6 Noroeste 10 Noroeste 0 998.6 -1.9 75
2019-03-25 15:00:00 17.9 4 Noroeste 10 Norte 1.7 999.1 -2.1 77
2019-03-25 14:00:00 16.6 5 Este 13 Sur 0.4 1000.2 -1.7 77
2019-03-25 13:00:00 18.4 3 Sudoeste 9 Sudoeste 0 1000.5 -0.9 80
2019-03-25 12:00:00 18.3 6 Sudoeste 12 Sur 0.2 1001.2 -0.4 83
2019-03-25 11:00:00 17 6 Sur 12 Sur 0.1 1001.9 0.9 82
2019-03-25 10:00:00 17 3 Oeste 8 Oeste 0 1001.4 0.6 76
2019-03-25 09:00:00 16.5 0 Calma 9 Nordeste 0 1001.6 1.5 76
2019-03-25 08:00:00 15.3 7 Nordeste 14 Nordeste 0 1001 -0.1 82
2019-03-25 07:00:00 15 4 Este 24 Nordeste 0.1 1000.8 -0.6 83
2019-03-25 06:00:00 14.8 8 Este 12 Nordeste 0.2 1000.1 -1.7 82
2019-03-25 05:00:00 14.9 2 Este 12 Nordeste 0.6 1001.1 -1.1 90
2019-03-25 04:00:00 15.1 9 Nordeste 14 Nordeste 0.1 1001.4 -1.3 89
2019-03-25 03:00:00 15.7 2 Norte 10 Este 0.2 1001.8 -1.3 85
2019-03-25 02:00:00 16 6 Este 10 Este 1 1002.2 -1.3 81
2019-03-25 01:00:00 17 5 Este 9 Este 0 1002.7 -1.1 66
2019-03-25 00:00:00 16.8 5 Este 10 Este 0 1003.1 -0.5 64